This is the latest recevied weather packets stored in our database for station/object KG4GJX. If no packets are shown the sender has not sent any weather packets the latest 10 day(s).
| Time | Temp. | Humidity | Pressure | Rain* | Wind** | Luminosity | Snow |
|---|---|---|---|---|---|---|---|
| 1788582283 | 25° C | 100% | 1014.9 hPa | 0 mm | - | - | - |
| 1788580961 | 25° C | 100% | 1015.2 hPa | 0 mm | - | - | - |
| 1788578978 | 25° C | 100% | 1015.5 hPa | 0 mm | - | - | - |
| 1788578316 | 25.56° C | 100% | 1015.9 hPa | 0 mm | - | - | - |
| 1788577654 | 25.56° C | 100% | 1016.2 hPa | 0 mm | - | - | - |
| 1788576991 | 25.56° C | 99% | 1016.2 hPa | 0 mm | - | - | - |
| 1788576329 | 25.56° C | 98% | 1016.2 hPa | 0 mm | - | - | - |
| 1788575666 | 26.11° C | 98% | 1016.2 hPa | 0 mm | - | - | - |
| 1788574344 | 26.11° C | 97% | 1016.2 hPa | 0 mm | - | - | - |
| 1788573681 | 26.11° C | 96% | 1016.2 hPa | 0 mm | - | - | - |
| 1788573019 | 26.11° C | 95% | 1016.2 hPa | 0 mm | - | - | - |
| 1788572357 | 26.67° C | 94% | 1016.2 hPa | 0 mm | - | - | - |
| 1788571034 | 26.67° C | 93% | 1016.2 hPa | 0 mm | - | - | - |
| 1788570372 | 26.67° C | 92% | 1016.2 hPa | 0 mm | - | - | - |
| 1788569709 | 26.67° C | 91% | 1016.2 hPa | 0 mm | - | - | - |
| 1788569047 | 27.22° C | 90% | 1015.9 hPa | 0 mm | - | - | - |
| 1788568384 | 27.78° C | 87% | 1015.9 hPa | 0 mm | - | - | - |
| 1788567722 | 28.33° C | 84% | 1015.9 hPa | 0 mm | - | - | - |
| 1788567059 | 28.89° C | 82% | 1015.9 hPa | 0 mm | - | - | - |
| 1788566397 | 29.44° C | 79% | 1016.2 hPa | 0 mm | - | - | - |
| 1788565735 | 30° C | 75% | 1016.2 hPa | 0 mm | - | - | - |
| 1788565072 | 31.11° C | 68% | 1015.9 hPa | 0 mm | - | - | - |
| 1788564410 | 32.22° C | 66% | 1015.9 hPa | 0 mm | - | - | - |
| 1788563748 | 32.78° C | 63% | 1015.9 hPa | 0 mm | - | - | - |
| 1788563085 | 33.33° C | 61% | 1015.5 hPa | 0 mm | - | - | - |
* Rain latest hour (hover to see other rain measurements)
** Current wind speed in m/s (hover to see current wind gust speed)